Time;durP1;ratioP1;P1;durP2;ratioP2;P2;SDS_P1;SDS_P2;PMS_P1;PMS_P2;Temp;Humidity;BMP_temperature;BMP_pressure;BME280_temperature;BME280_humidity;BME280_pressure;Samples;Min_cycle;Max_cycle;Signal;HPM_P1;HPM_P2
2021/05/02 00:02:04;;;;;;;33.63;30.33;;;;;;;8.29;76.23;99857.74;128013;1102;22386;-74
2021/05/02 00:04:35;;;;;;;33.00;29.95;;;;;;;8.27;76.18;99842.13;128180;1098;24482;-74
2021/05/02 00:07:04;;;;;;;33.25;30.05;;;;;;;8.25;76.27;99844.91;127941;1101;23303;-74
2021/05/02 00:09:33;;;;;;;35.98;32.73;;;;;;;8.23;76.23;99832.90;127941;1104;22360;-73
2021/05/02 00:12:02;;;;;;;30.98;27.78;;;;;;;8.19;76.08;99808.73;127973;1103;22957;-74
2021/05/02 00:14:31;;;;;;;32.23;29.13;;;;;;;8.14;75.96;99797.08;127531;1105;22468;-74
2021/05/02 00:17:00;;;;;;;33.40;30.43;;;;;;;8.07;76.07;99786.39;127551;1103;24591;-73
2021/05/02 00:19:29;;;;;;;31.80;29.00;;;;;;;8.02;76.16;99783.42;127904;1103;24998;-73
2021/05/02 00:21:58;;;;;;;31.05;28.15;;;;;;;7.98;76.41;99785.56;127945;1104;22424;-73
2021/05/02 00:24:27;;;;;;;30.70;27.63;;;;;;;7.96;76.44;99778.81;127514;1105;22529;-73
2021/05/02 00:26:56;;;;;;;30.98;27.98;;;;;;;7.94;76.73;99772.92;127922;1102;22442;-70
2021/05/02 00:29:25;;;;;;;30.78;27.93;;;;;;;7.96;76.78;99758.63;127909;1104;22383;-73
2021/05/02 00:31:55;;;;;;;31.43;28.48;;;;;;;7.94;76.64;99744.80;127903;1103;22382;-72
2021/05/02 00:34:27;;;;;;;32.50;29.33;;;;;;;7.90;76.60;99732.98;127963;1104;22374;-72
2021/05/02 00:36:56;;;;;;;35.63;32.30;;;;;;;7.86;76.71;99736.91;127922;1104;23142;-72
2021/05/02 00:39:25;;;;;;;43.20;39.40;;;;;;;7.82;76.96;99747.92;127914;1101;22356;-73
2021/05/02 00:42:04;;;;;;;44.23;40.53;;;;;;;7.79;76.89;99757.77;127984;1102;22824;-74
2021/05/02 00:44:48;;;;;;;44.88;41.00;;;;;;;7.77;76.85;99732.66;127654;1105;22365;-73
2021/05/02 00:47:39;;;;;;;43.73;39.73;;;;;;;7.75;77.05;99734.61;127489;1108;22843;-73
2021/05/02 00:50:15;;;;;;;43.57;39.77;;;;;;;7.67;77.18;99738.08;127533;1108;22566;-73
2021/05/02 00:53:21;;;;;;;43.28;39.50;;;;;;;7.66;77.28;99751.36;127679;1104;22388;-73
2021/05/02 00:55:57;;;;;;;49.53;44.48;;;;;;;7.64;77.36;99748.09;127504;1105;24976;-73
2021/05/02 00:59:06;;;;;;;45.13;40.93;;;;;;;7.62;77.39;99742.98;127584;1107;22388;-73
2021/05/02 01:01:44;;;;;;;45.05;41.08;;;;;;;7.62;77.65;99736.91;126936;1110;22310;-73
2021/05/02 01:04:25;;;;;;;42.23;38.47;;;;;;;7.63;77.67;99738.55;126977;1110;22424;-73
2021/05/02 01:07:03;;;;;;;42.93;39.13;;;;;;;7.65;77.72;99732.15;127480;1105;25089;-73
2021/05/02 01:09:33;;;;;;;41.28;37.80;;;;;;;7.65;77.80;99726.07;127524;1107;23237;-73
2021/05/02 01:12:03;;;;;;;38.53;34.93;;;;;;;7.66;77.72;99720.64;127522;1105;24214;-73
2021/05/02 01:14:41;;;;;;;37.20;33.85;;;;;;;7.67;77.91;99714.41;127487;1108;22326;-73
2021/05/02 01:17:14;;;;;;;37.28;33.98;;;;;;;7.68;78.08;99716.05;127506;1107;22872;-73
2021/05/02 01:19:48;;;;;;;35.23;32.03;;;;;;;7.69;77.98;99706.34;127553;1105;22925;-73
2021/05/02 01:22:20;;;;;;;38.90;35.30;;;;;;;7.71;77.98;99707.02;127925;1101;22414;-72
2021/05/02 01:24:52;;;;;;;34.93;31.93;;;;;;;7.71;78.11;99693.88;128055;1101;22350;-72
2021/05/02 01:27:31;;;;;;;35.90;32.60;;;;;;;7.72;78.12;99662.14;128226;1101;22409;-72
2021/05/02 01:30:05;;;;;;;35.50;32.28;;;;;;;7.74;78.14;99661.99;127772;1104;22373;-73
2021/05/02 01:32:34;;;;;;;35.78;32.38;;;;;;;7.76;78.40;99665.26;128079;1100;22356;-72
2021/05/02 01:35:05;;;;;;;35.88;32.68;;;;;;;7.81;78.51;99664.78;128037;1099;22349;-74
2021/05/02 01:37:34;;;;;;;36.97;33.57;;;;;;;7.85;78.65;99666.08;128085;1102;22358;-74
2021/05/02 01:40:05;;;;;;;35.93;32.73;;;;;;;7.87;78.39;99657.05;128169;1099;25397;-74
2021/05/02 01:42:34;;;;;;;36.18;32.88;;;;;;;7.88;78.23;99645.53;128144;1101;22359;-74
2021/05/02 01:45:06;;;;;;;35.90;32.50;;;;;;;7.88;78.26;99635.02;128201;1101;22365;-72
2021/05/02 01:47:46;;;;;;;35.90;32.50;;;;;;;7.88;78.33;99645.53;128258;1098;22369;-73
2021/05/02 01:50:16;;;;;;;39.55;35.63;;;;;;;7.90;78.38;99643.56;128586;1098;22331;-72
2021/05/02 01:52:52;;;;;;;42.28;38.35;;;;;;;7.90;78.35;99646.20;128651;1098;22312;-72
2021/05/02 01:55:24;;;;;;;43.28;39.20;;;;;;;7.93;78.50;99643.23;128248;1098;22358;-73
2021/05/02 01:57:59;;;;;;;39.48;35.80;;;;;;;7.93;78.35;99630.08;128290;1100;23116;-72
2021/05/02 02:00:41;;;;;;;39.85;35.78;;;;;;;7.96;78.32;99634.16;128250;1098;22335;-73
2021/05/02 02:03:10;;;;;;;36.63;33.23;;;;;;;7.96;78.44;99627.12;128307;1098;22353;-73
2021/05/02 02:05:40;;;;;;;38.63;35.10;;;;;;;7.99;78.30;99621.49;127971;1098;24472;-74
2021/05/02 02:08:10;;;;;;;39.60;35.78;;;;;;;8.01;78.34;99610.82;128188;1098;24510;-74
2021/05/02 02:10:40;;;;;;;42.35;38.30;;;;;;;8.01;78.21;99592.41;128006;1101;22883;-74
2021/05/02 02:13:13;;;;;;;40.73;36.93;;;;;;;8.01;78.37;99587.15;127906;1104;22376;-73
2021/05/02 02:15:42;;;;;;;44.10;39.95;;;;;;;8.02;78.35;99565.92;128078;1101;23306;-74
2021/05/02 02:18:15;;;;;;;45.70;41.23;;;;;;;8.02;78.19;99575.63;127951;1104;22380;-73
2021/05/02 02:20:52;;;;;;;44.10;40.10;;;;;;;8.00;78.23;99575.81;127949;1104;22538;-74
2021/05/02 02:23:30;;;;;;;43.98;39.75;;;;;;;8.00;78.22;99570.55;127998;1099;23256;-73
2021/05/02 02:26:35;;;;;;;40.53;36.78;;;;;;;7.99;78.19;99562.81;127975;1101;23282;-73
2021/05/02 02:29:08;;;;;;;38.78;35.05;;;;;;;7.97;78.12;99562.18;127948;1102;24494;-73
2021/05/02 02:31:38;;;;;;;41.15;37.35;;;;;;;7.96;78.21;99550.84;127554;1104;24268;-74
2021/05/02 02:34:07;;;;;;;39.88;36.00;;;;;;;7.94;78.01;99542.30;127557;1105;23258;-74
2021/05/02 02:36:36;;;;;;;39.55;35.85;;;;;;;7.94;78.38;99539.66;127457;1105;22373;-73
2021/05/02 02:39:06;;;;;;;40.78;36.88;;;;;;;7.93;78.16;99529.30;127877;1101;22491;-73
2021/05/02 02:41:39;;;;;;;41.40;37.40;;;;;;;7.94;78.35;99521.25;127979;1104;22401;-73
2021/05/02 02:44:10;;;;;;;41.73;37.73;;;;;;;7.92;78.03;99502.19;128026;1104;22425;-74
2021/05/02 02:46:47;;;;;;;40.65;36.75;;;;;;;7.90;78.12;99501.56;128046;1102;22361;-73
2021/05/02 02:49:20;;;;;;;42.88;38.93;;;;;;;7.88;78.41;99498.27;128268;1101;22361;-71
2021/05/02 02:51:53;;;;;;;45.00;40.90;;;;;;;7.88;78.22;99490.38;128005;1101;22373;-73
2021/05/02 02:54:24;;;;;;;43.00;38.93;;;;;;;7.86;78.36;99491.53;127967;1101;22356;-73
2021/05/02 02:56:57;;;;;;;41.38;37.65;;;;;;;7.87;78.46;99480.05;128059;1100;24226;-73
2021/05/02 02:59:31;;;;;;;41.25;37.50;;;;;;;7.90;78.38;99487.59;127524;1104;22355;-73
2021/05/02 03:02:02;;;;;;;42.95;38.85;;;;;;;7.91;78.42;99483.97;127461;1108;22388;-72
2021/05/02 03:04:34;;;;;;;40.58;36.65;;;;;;;7.93;78.47;99477.55;127485;1108;23066;-72
2021/05/02 03:07:05;;;;;;;39.78;36.00;;;;;;;7.96;78.34;99473.73;127809;1101;22377;-72
2021/05/02 03:09:41;;;;;;;39.73;36.20;;;;;;;7.98;78.44;99471.76;127623;1103;24198;-73
2021/05/02 03:12:11;;;;;;;41.70;37.80;;;;;;;7.98;78.27;99467.31;127565;1102;22372;-72
2021/05/02 03:14:40;;;;;;;44.55;40.20;;;;;;;7.98;78.19;99467.31;127525;1105;22387;-73
2021/05/02 03:17:09;;;;;;;44.05;40.05;;;;;;;7.98;78.25;99464.69;127991;1101;22355;-73
2021/05/02 03:19:49;;;;;;;43.13;39.10;;;;;;;7.99;78.15;99455.80;128004;1098;25074;-73
2021/05/02 03:22:32;;;;;;;42.95;39.20;;;;;;;7.99;78.15;99453.16;128232;1101;22403;-73
2021/05/02 03:25:04;;;;;;;40.05;36.28;;;;;;;8.01;78.05;99450.38;128300;1101;22843;-74
2021/05/02 03:27:44;;;;;;;41.10;37.28;;;;;;;8.00;78.02;99444.30;128276;1098;22326;-73
2021/05/02 03:30:15;;;;;;;41.63;37.60;;;;;;;7.98;77.96;99446.27;128373;1099;23207;-72
2021/05/02 03:32:50;;;;;;;42.45;38.63;;;;;;;7.99;78.15;99444.45;128339;1098;22321;-74
2021/05/02 03:35:23;;;;;;;40.00;36.43;;;;;;;8.01;78.26;99437.23;128309;1098;22689;-73
2021/05/02 03:38:22;;;;;;;39.20;35.70;;;;;;;8.01;78.32;99438.04;128294;1096;24534;-74
2021/05/02 03:40:55;;;;;;;40.48;36.98;;;;;;;8.05;78.23;99437.70;128612;1098;22338;-74
2021/05/02 03:43:23;;;;;;;37.73;34.05;;;;;;;8.06;78.12;99437.51;128374;1097;22336;-74
2021/05/02 03:45:52;;;;;;;37.55;34.25;;;;;;;8.09;78.10;99433.72;128216;1101;22362;-74
2021/05/02 03:48:21;;;;;;;38.15;34.73;;;;;;;8.09;78.21;99433.72;128217;1101;22331;-75
2021/05/02 03:50:50;;;;;;;37.90;34.43;;;;;;;8.09;77.99;99431.90;128229;1098;22338;-74
2021/05/02 03:53:18;;;;;;;37.15;33.80;;;;;;;8.10;78.02;99435.38;128246;1098;24626;-75
2021/05/02 03:55:48;;;;;;;37.60;34.30;;;;;;;8.09;78.11;99421.38;128220;1101;22341;-74
2021/05/02 03:58:18;;;;;;;38.43;34.93;;;;;;;8.06;77.93;99416.47;128186;1101;22362;-74
2021/05/02 04:00:46;;;;;;;36.38;32.90;;;;;;;8.04;78.24;99418.47;127962;1104;22412;-74
2021/05/02 04:03:15;;;;;;;39.70;36.30;;;;;;;8.05;78.20;99419.28;127984;1101;22359;-75
2021/05/02 04:05:44;;;;;;;40.70;37.07;;;;;;;8.02;78.12;99412.55;128027;1102;22649;-75
2021/05/02 04:08:12;;;;;;;41.40;37.63;;;;;;;7.99;78.18;99405.82;128228;1098;24987;-75
2021/05/02 04:10:41;;;;;;;39.45;35.85;;;;;;;7.95;78.34;99393.20;128265;1101;22411;-75
2021/05/02 04:13:10;;;;;;;35.20;32.23;;;;;;;7.89;78.31;99386.82;128259;1098;22331;-75
2021/05/02 04:15:39;;;;;;;36.15;32.95;;;;;;;7.84;78.65;99373.39;128264;1098;25664;-75
2021/05/02 04:18:07;;;;;;;41.85;37.78;;;;;;;7.81;78.69;99376.37;128054;1100;22390;-75
2021/05/02 04:20:36;;;;;;;38.35;34.78;;;;;;;7.79;78.79;99358.12;128358;1098;22342;-75
2021/05/02 04:23:05;;;;;;;38.18;34.83;;;;;;;7.77;79.00;99362.75;128334;1098;24204;-76
2021/05/02 04:25:34;;;;;;;35.43;32.25;;;;;;;7.74;79.03;99357.02;128324;1096;24456;-76
2021/05/02 04:28:10;;;;;;;34.78;31.63;;;;;;;7.71;79.17;99366.06;128289;1098;22339;-75
2021/05/02 04:30:39;;;;;;;34.28;31.28;;;;;;;7.69;79.31;99354.08;128336;1098;22777;-75
2021/05/02 04:33:08;;;;;;;29.65;27.03;;;;;;;7.67;79.59;99358.72;128597;1098;22379;-74
2021/05/02 04:35:50;;;;;;;31.00;28.33;;;;;;;7.65;79.68;99355.43;128267;1098;22462;-75
2021/05/02 04:38:19;;;;;;;29.53;26.73;;;;;;;7.63;79.71;99352.14;128582;1098;22349;-75
2021/05/02 04:40:48;;;;;;;32.00;29.18;;;;;;;7.60;79.86;99355.11;128320;1098;23900;-76
2021/05/02 04:43:17;;;;;;;33.25;30.25;;;;;;;7.57;79.96;99353.67;128253;1097;24465;-76
2021/05/02 04:45:46;;;;;;;31.50;28.90;;;;;;;7.54;79.96;99357.45;128248;1098;24498;-76
2021/05/02 04:48:15;;;;;;;32.43;29.55;;;;;;;7.54;80.11;99357.45;127951;1101;22345;-77
2021/05/02 04:50:46;;;;;;;32.53;29.63;;;;;;;7.55;80.26;99359.09;127923;1104;22368;-77
2021/05/02 04:53:15;;;;;;;31.20;28.38;;;;;;;7.57;80.24;99360.74;127963;1101;22474;-78
2021/05/02 04:55:44;;;;;;;32.73;29.78;;;;;;;7.58;80.33;99346.61;128004;1104;22477;-79
2021/05/02 04:58:13;;;;;;;36.73;33.43;;;;;;;7.59;80.44;99335.91;127823;1108;23025;-78
2021/05/02 05:00:42;;;;;;;34.15;31.15;;;;;;;7.60;80.34;99331.45;127073;1108;22935;-79
2021/05/02 05:03:11;;;;;;;36.03;32.73;;;;;;;7.57;80.54;99327.39;127078;1106;22387;-79
2021/05/02 05:05:40;;;;;;;35.55;32.15;;;;;;;7.53;80.46;99311.16;127243;1108;22772;-78
2021/05/02 05:08:12;;;;;;;35.88;32.85;;;;;;;7.54;80.60;99309.34;127577;1108;22468;-79
2021/05/02 05:10:44;;;;;;;35.75;32.65;;;;;;;7.50;80.78;99303.61;127849;1105;22386;-80
2021/05/02 05:13:38;;;;;;;31.05;28.25;;;;;;;7.46;80.88;99285.72;127164;1111;22412;-81
2021/05/02 05:16:10;;;;;;;31.53;28.63;;;;;;;7.41;81.69;99280.19;127002;1110;22371;-82
2021/05/02 05:18:39;;;;;;;35.30;32.18;;;;;;;7.38;81.96;99268.20;126953;1108;22417;-81
2021/05/02 05:21:17;;;;;;;36.95;33.48;;;;;;;7.35;82.22;99258.04;127169;1108;24544;-81
2021/05/02 05:23:55;;;;;;;35.55;32.25;;;;;;;7.33;82.36;99244.28;127300;1108;23303;-81
2021/05/02 05:26:36;;;;;;;32.20;29.23;;;;;;;7.34;82.53;99238.02;127760;1108;23476;-78
2021/05/02 05:29:05;;;;;;;32.50;29.70;;;;;;;7.36;82.78;99254.41;127791;1105;22381;-81
2021/05/02 05:31:41;;;;;;;35.10;32.05;;;;;;;7.36;82.60;99246.53;128042;1105;22361;-80
2021/05/02 05:34:17;;;;;;;34.20;31.25;;;;;;;7.36;82.90;99243.90;127935;1105;22684;-82
2021/05/02 05:37:30;;;;;;;31.70;28.80;;;;;;;7.33;82.96;99241.65;128351;1100;22440;-81
2021/05/02 05:40:15;;;;;;;35.65;32.55;;;;;;;7.32;83.35;99239.99;128263;1100;22402;-80
2021/05/02 05:42:44;;;;;;;34.80;31.55;;;;;;;7.35;83.31;99238.84;128008;1102;22342;-74
2021/05/02 05:45:13;;;;;;;34.10;31.05;;;;;;;7.37;83.53;99231.61;128242;1097;22353;-80
2021/05/02 05:48:15;;;;;;;35.45;32.05;;;;;;;7.36;83.65;99222.88;128316;1098;24453;-79
2021/05/02 05:51:21;;;;;;;;;;;;;;;;;;;;;
2021/05/02 05:54:15;;;;;;;34.70;31.68;;;;;;;7.29;83.82;99214.06;128371;1101;22812;-81
2021/05/02 05:57:21;;;;;;;31.45;28.65;;;;;;;7.27;83.80;99198.50;128228;1101;22375;-82
2021/05/02 06:00:34;;;;;;;;;;;;;;;;;;;;;
2021/05/02 06:03:16;;;;;;;38.50;35.07;;;;;;;7.28;84.08;99179.11;127172;1108;22434;-81
2021/05/02 06:05:50;;;;;;;;;;;;;;;7.28;84.10;99165.16;127038;1110;22441;-80
2021/05/02 06:09:00;;;;;;;;;;;;;;;;;;;;;
2021/05/02 06:11:44;;;;;;;26.23;23.93;;;;;;;7.26;84.18;99170.60;126983;1109;22389;-80
2021/05/02 06:14:29;;;;;;;27.18;24.78;;;;;;;7.28;84.20;99163.34;127100;1108;22406;-80
2021/05/02 06:17:35;;;;;;;;;;;;;;;;;;;;;
2021/05/02 06:20:36;;;;;;;26.28;24.05;;;;;;;7.31;84.25;99156.93;127189;1108;24275;-81
2021/05/02 06:23:31;;;;;;;28.58;26.05;;;;;;;7.33;84.22;99165.47;127772;1103;24293;-81
2021/05/02 06:26:13;;;;;;;28.50;25.80;;;;;;;7.33;84.26;99160.20;127860;1105;23318;-83
2021/05/02 06:29:04;;;;;;;25.73;23.53;;;;;;;7.33;84.25;99167.25;127789;1108;22388;-83
2021/05/02 06:31:42;;;;;;;25.20;23.13;;;;;;;7.33;84.41;99173.34;127629;1101;22376;-83
2021/05/02 06:34:21;;;;;;;24.33;22.05;;;;;;;7.31;84.34;99155.11;128003;1105;22383;-83
2021/05/02 06:37:02;;;;;;;25.27;23.07;;;;;;;7.32;84.40;99153.30;128018;1105;22669;-84
2021/05/02 06:39:52;;;;;;;26.80;24.48;;;;;;;7.33;84.46;99141.82;128020;1105;22365;-84
2021/05/02 06:43:12;;;;;;;;;;;;;;;;;;;;;
2021/05/02 06:46:04;;;;;;;;;;;;;;;;;;;;;
2021/05/02 06:49:04;;;;;;;24.80;22.65;;;;;;;7.26;84.63;99114.59;128340;1101;22459;-80
2021/05/02 06:52:23;;;;;;;;;;;;;;;;;;;;;
2021/05/02 06:55:28;;;;;;;20.85;18.80;;;;;;;7.23;84.91;99104.44;128424;1101;22321;-81
2021/05/02 06:58:16;;;;;;;;;;;;;;;;;;;;;
2021/05/02 07:01:51;;;;;;;;;;;;;;;;;;;;;
2021/05/02 07:04:41;;;;;;;;;;;;;;;;;;;;;
2021/05/02 07:08:02;;;;;;;;;;;;;;;;;;;;;
2021/05/02 07:11:14;;;;;;;16.65;15.23;;;;;;;7.16;85.15;99048.36;126882;1114;22433;-80
2021/05/02 07:14:46;;;;;;;17.08;15.53;;;;;;;7.18;85.53;99041.13;126862;1114;22484;-79
2021/05/02 07:18:26;;;;;;;16.00;14.63;;;;;;;7.18;85.39;99026.19;126900;1111;22406;-81
2021/05/02 07:21:56;;;;;;;;;;;;;;;;;;;;;
2021/05/02 07:25:27;;;;;;;12.83;11.63;;;;;;;7.16;85.59;98998.46;126858;1114;22683;-81
2021/05/02 07:28:40;;;;;;;;;;;;;;;;;;;;;
2021/05/02 07:31:28;;;;;;;;;;;;;;;;;;;;;
2021/05/02 07:34:32;;;;;;;9.80;8.90;;;;;;;7.22;85.76;98969.67;126992;1111;22483;-82
2021/05/02 07:37:19;;;;;;;9.88;8.93;;;;;;;7.24;85.66;98972.13;127372;1108;23314;-80
2021/05/02 07:40:10;;;;;;;10.80;9.80;;;;;;;7.24;85.72;98970.32;127794;1104;22473;-79
2021/05/02 07:42:58;;;;;;;11.28;10.20;;;;;;;7.26;85.68;98972.75;128094;1104;22349;-79
2021/05/02 07:45:42;;;;;;;10.23;9.30;;;;;;;7.29;85.62;98982.91;128231;1102;22800;-77
2021/05/02 07:49:17;;;;;;;11.80;10.60;;;;;;;7.29;85.77;98975.02;128268;1104;22509;-81
2021/05/02 07:52:30;;;;;;;11.60;10.50;;;;;;;7.33;85.86;98978.95;128276;1102;22466;-79
2021/05/02 07:55:22;;;;;;;;;;;;;;;;;;;;;
2021/05/02 07:58:33;;;;;;;;;;;;;;;;;;;;;
2021/05/02 08:01:22;;;;;;;9.25;8.45;;;;;;;7.26;85.89;98978.84;128030;1104;21297;-80
2021/05/02 08:04:10;;;;;;;10.65;9.75;;;;;;;7.31;86.01;98973.85;128110;1104;23235;-80
2021/05/02 08:07:00;;;;;;;;;;;;;;;;;;;;;
2021/05/02 08:10:07;;;;;;;9.40;8.50;;;;;;;7.37;86.12;98974.95;127914;1101;25016;-79
2021/05/02 08:12:58;;;;;;;;;;;;;;;;;;;;;
2021/05/02 08:16:30;;;;;;;;;;;;;;;;;;;;;
2021/05/02 08:19:43;;;;;;;11.28;10.28;;;;;;;7.45;86.05;98955.64;127313;1108;22384;-82
2021/05/02 08:22:12;;;;;;;11.58;10.50;;;;;;;7.48;85.94;98950.84;127290;1106;24788;-81
2021/05/02 08:24:45;;;;;;;10.13;9.15;;;;;;;7.50;86.05;98959.38;127338;1105;24498;-81
2021/05/02 08:27:20;;;;;;;10.03;9.13;;;;;;;7.51;86.01;98955.73;127347;1108;22449;-81
2021/05/02 08:29:54;;;;;;;11.78;9.48;;;;;;;7.57;86.22;98958.64;127302;1108;22369;-84
2021/05/02 08:32:26;;;;;;;10.90;9.95;;;;;;;7.57;86.04;98958.64;127029;1111;22455;-83
2021/05/02 08:34:56;;;;;;;10.65;9.48;;;;;;;7.59;86.09;98954.81;127093;1111;22404;-83
2021/05/02 08:37:28;;;;;;;12.25;11.05;;;;;;;7.61;86.04;98959.91;127251;1108;22841;-84
2021/05/02 08:40:51;;;;;;;9.88;8.98;;;;;;;7.63;86.00;98961.36;127674;1108;23372;-85
2021/05/02 08:43:23;;;;;;;10.30;9.40;;;;;;;7.63;85.96;98952.63;128283;1104;22494;-85
2021/05/02 08:46:09;;;;;;;9.75;8.78;;;;;;;7.62;86.07;98951.02;128120;1105;22397;-84
2021/05/02 08:48:38;;;;;;;9.80;8.68;;;;;;;7.64;86.08;98943.77;127470;1108;22545;-85
2021/05/02 08:51:14;;;;;;;11.45;9.00;;;;;;;7.65;85.98;98929.63;127827;1107;22411;-82
2021/05/02 08:53:49;;;;;;;9.75;8.78;;;;;;;7.69;86.20;98931.69;128043;1101;24498;-82
2021/05/02 08:56:18;;;;;;;8.15;7.35;;;;;;;7.70;86.02;98916.77;127992;1101;22436;-84
2021/05/02 08:58:48;;;;;;;9.30;8.40;;;;;;;7.69;86.14;98904.59;128369;1098;22459;-85
2021/05/02 09:01:31;;;;;;;11.00;8.98;;;;;;;7.69;86.05;98902.77;128332;1105;22377;-85
2021/05/02 09:04:07;;;;;;;12.05;10.83;;;;;;;7.69;86.15;98894.89;128399;1098;22358;-83
2021/05/02 09:06:39;;;;;;;11.60;10.00;;;;;;;7.70;86.05;98890.47;128411;1101;22501;-83
2021/05/02 09:09:16;;;;;;;11.00;9.78;;;;;;;7.71;86.01;98886.84;128458;1102;22882;-85
2021/05/02 09:11:54;;;;;;;12.65;11.40;;;;;;;7.71;86.07;98886.84;128431;1098;22333;-83
2021/05/02 09:14:38;;;;;;;13.98;12.55;;;;;;;7.72;86.13;98883.20;128405;1101;22355;-84
2021/05/02 09:17:14;;;;;;;13.53;12.10;;;;;;;7.75;86.24;98882.83;128405;1101;22681;-78
2021/05/02 09:20:38;;;;;;;;;;;;;;;;;;;;;
2021/05/02 09:23:50;;;;;;;13.58;12.35;;;;;;;7.73;86.36;98867.27;128612;1098;22367;-84
2021/05/02 09:26:33;;;;;;;12.10;10.90;;;;;;;7.77;86.42;98870.33;128414;1101;22367;-83
2021/05/02 09:29:07;;;;;;;15.10;13.60;;;;;;;7.79;86.31;98874.38;128346;1101;24997;-83
2021/05/02 09:31:45;;;;;;;11.10;10.08;;;;;;;7.79;86.18;98879.63;128316;1104;23414;-84
2021/05/02 09:34:19;;;;;;;10.50;9.53;;;;;;;7.79;86.18;98868.31;128366;1104;22478;-84
2021/05/02 09:37:09;;;;;;;10.05;9.03;;;;;;;7.81;86.33;98879.47;128315;1104;22456;-78
2021/05/02 09:39:56;;;;;;;11.15;9.65;;;;;;;7.84;86.45;98888.80;127761;1104;22395;-79
2021/05/02 09:45:29;;;;;;;11.15;10.10;;;;;;;7.85;86.57;98872.83;128848;1095;24494;-83
2021/05/02 09:48:01;;;;;;;10.90;9.80;;;;;;;7.89;86.57;98873.27;128447;1098;24475;-83
2021/05/02 09:50:35;;;;;;;11.68;10.58;;;;;;;7.87;86.40;98870.84;128322;1098;24250;-84
2021/05/02 09:53:07;;;;;;;10.53;9.53;;;;;;;7.90;86.54;98873.09;128415;1104;23307;-81
2021/05/02 09:55:43;;;;;;;11.00;9.88;;;;;;;7.92;86.58;98868.45;128283;1101;22349;-84
2021/05/02 09:58:21;;;;;;;11.45;10.38;;;;;;;7.92;86.56;98868.45;128240;1101;25667;-82
2021/05/02 10:00:56;;;;;;;12.53;10.17;;;;;;;7.90;86.28;98873.09;128339;1101;22655;-83
2021/05/02 10:03:43;;;;;;;13.68;12.38;;;;;;;7.89;86.63;98863.56;128298;1104;22399;-79
2021/05/02 10:06:33;;;;;;;13.95;11.63;;;;;;;7.93;86.70;98872.73;128214;1101;22381;-83
2021/05/02 10:09:12;;;;;;;11.43;10.43;;;;;;;7.97;86.80;98876.61;128136;1105;22351;-82
2021/05/02 10:11:44;;;;;;;11.45;10.23;;;;;;;8.01;86.64;98877.86;128253;1101;22374;-82
2021/05/02 10:14:14;;;;;;;10.83;9.70;;;;;;;8.05;86.61;98885.38;128259;1101;22332;-82
2021/05/02 10:16:44;;;;;;;20.52;18.33;;;;;;;8.09;86.79;98886.63;128183;1105;22374;-80
2021/05/02 10:19:14;;;;;;;11.05;9.95;;;;;;;8.14;86.81;98900.04;128180;1101;25015;-80
2021/05/02 10:21:46;;;;;;;9.13;8.18;;;;;;;8.14;86.53;98892.95;127647;1104;22503;-80
2021/05/02 10:24:18;;;;;;;8.07;7.27;;;;;;;8.14;86.53;98897.41;128240;1104;22362;-80
2021/05/02 10:26:50;;;;;;;9.85;7.80;;;;;;;8.16;86.53;98898.02;127702;1105;22377;-79
2021/05/02 10:29:41;;;;;;;8.95;7.58;;;;;;;8.17;86.68;98899.66;127948;1104;22478;-80
2021/05/02 10:32:15;;;;;;;8.13;6.60;;;;;;;8.15;86.39;98904.28;128269;1101;22880;-79
2021/05/02 10:34:53;;;;;;;13.60;9.00;;;;;;;8.16;86.38;98909.38;127584;1108;22472;-78
2021/05/02 10:37:26;;;;;;;10.88;9.60;;;;;;;8.19;86.60;98916.05;127710;1105;22882;-80
2021/05/02 10:40:06;;;;;;;19.30;11.35;;;;;;;8.20;86.42;98917.70;127465;1107;22682;-79
2021/05/02 10:42:51;;;;;;;13.78;12.35;;;;;;;8.20;86.36;98920.34;127763;1105;22377;-80
2021/05/02 10:45:44;;;;;;;16.18;13.50;;;;;;;8.21;86.56;98922.77;127296;1105;22479;-78
2021/05/02 10:48:47;;;;;;;12.43;11.10;;;;;;;8.19;86.36;98922.13;127491;1105;22627;-79
2021/05/02 10:51:28;;;;;;;;;;;;;;;8.11;86.11;98929.34;127650;1105;24262;-78
2021/05/02 10:54:18;;;;;;;17.95;15.70;;;;;;;8.06;86.43;98929.07;127615;1107;21297;-78
2021/05/02 10:57:01;;;;;;;14.25;12.75;;;;;;;8.06;86.26;98921.98;127134;1108;22376;-80
2021/05/02 11:00:21;;;;;;;17.73;12.63;;;;;;;8.05;86.35;98922.19;127070;1107;22363;-78
2021/05/02 11:02:54;;;;;;;14.58;12.58;;;;;;;8.02;86.39;98921.55;126948;1109;22396;-80
2021/05/02 11:05:46;;;;;;;16.83;14.43;;;;;;;8.04;86.55;98931.91;126791;1112;22543;-78
2021/05/02 11:08:51;;;;;;;13.25;11.85;;;;;;;8.01;86.21;98935.71;126678;1109;22380;-78
2021/05/02 11:11:30;;;;;;;19.07;12.00;;;;;;;7.98;86.49;98930.82;126922;1111;22494;-79
2021/05/02 11:14:29;;;;;;;14.23;11.78;;;;;;;7.99;86.47;98935.06;126902;1108;22408;-79
2021/05/02 11:17:20;;;;;;;11.73;9.57;;;;;;;7.96;86.16;98937.26;126946;1111;22369;-77
2021/05/02 11:19:52;;;;;;;13.75;10.65;;;;;;;7.94;86.36;98953.23;126665;1114;22384;-78
2021/05/02 11:22:23;;;;;;;13.03;11.03;;;;;;;7.94;86.39;98958.49;126603;1111;24118;-76
2021/05/02 11:24:59;;;;;;;10.05;8.60;;;;;;;7.91;86.34;98958.86;126687;1111;22394;-78
2021/05/02 11:27:54;;;;;;;7.63;6.83;;;;;;;7.91;86.33;98976.45;126669;1111;22728;-77
2021/05/02 11:30:30;;;;;;;9.30;8.28;;;;;;;7.87;86.41;98965.49;127013;1111;23418;-79
2021/05/02 11:33:00;;;;;;;7.35;6.28;;;;;;;7.86;86.25;98976.17;126961;1111;22370;-76
2021/05/02 11:35:43;;;;;;;8.30;7.40;;;;;;;7.85;86.26;98979.81;126900;1111;22377;-76
2021/05/02 11:38:17;;;;;;;12.78;8.78;;;;;;;7.86;86.48;98991.95;126925;1108;24637;-75
2021/05/02 11:40:46;;;;;;;10.28;8.25;;;;;;;7.86;86.63;98990.13;127319;1105;24495;-76
2021/05/02 11:43:23;;;;;;;10.65;7.65;;;;;;;7.88;86.40;98993.41;127503;1105;22359;-75
2021/05/02 11:46:01;;;;;;;7.20;6.45;;;;;;;7.89;86.49;99004.73;127625;1105;24172;-75
2021/05/02 11:48:42;;;;;;;9.18;7.48;;;;;;;7.89;86.55;99002.11;126999;1110;22403;-75
2021/05/02 11:51:26;;;;;;;11.25;7.95;;;;;;;7.89;86.57;99016.06;126978;1110;22406;-77
2021/05/02 11:53:59;;;;;;;6.43;5.10;;;;;;;7.91;86.52;99018.53;127204;1107;22382;-78
2021/05/02 11:56:51;;;;;;;6.18;5.35;;;;;;;7.93;86.68;99022.61;127482;1101;22385;-76
2021/05/02 11:59:20;;;;;;;;;;;;;;;7.94;86.66;99033.94;127629;1105;25055;-76
2021/05/02 12:01:53;;;;;;;9.10;7.17;;;;;;;7.94;86.91;99037.38;127536;1107;21280;-78
2021/05/02 12:04:22;;;;;;;7.68;6.43;;;;;;;;;;126972;1108;25098;-75
2021/05/02 12:06:57;;;;;;;8.30;7.23;;;;;;;8.02;86.82;99041.72;126970;1107;24540;-76
2021/05/02 12:09:29;;;;;;;9.18;6.15;;;;;;;8.04;86.70;99052.07;126665;1111;24212;-75
2021/05/02 12:12:00;;;;;;;;;;;;;;;7.99;86.34;99061.30;126644;1110;24310;-76
2021/05/02 12:14:31;;;;;;;9.95;6.80;;;;;;;7.97;86.67;99055.42;126732;1111;22975;-75
2021/05/02 12:17:02;;;;;;;10.98;5.83;;;;;;;8.02;86.88;99057.50;127043;1108;22410;-75
2021/05/02 12:19:34;;;;;;;14.38;13.03;;;;;;;8.08;86.95;99053.33;126896;1111;22421;-75
2021/05/02 12:22:06;;;;;;;6.03;4.10;;;;;;;8.12;86.56;99070.37;127086;1107;22367;-76
2021/05/02 12:24:35;;;;;;;6.07;4.67;;;;;;;8.01;86.31;99072.47;127445;1108;22630;-77
2021/05/02 12:27:07;;;;;;;6.63;4.88;;;;;;;7.99;86.15;99069.19;127585;1105;24028;-76
2021/05/02 12:29:39;;;;;;;5.98;4.78;;;;;;;7.91;85.93;99069.30;127949;1104;22346;-77
2021/05/02 12:32:14;;;;;;;6.17;4.93;;;;;;;7.81;85.68;99065.31;127961;1104;22452;-77
2021/05/02 12:34:51;;;;;;;6.48;4.85;;;;;;;7.71;85.62;99070.84;128006;1104;22383;-75
2021/05/02 12:37:24;;;;;;;6.97;5.67;;;;;;;7.62;85.75;99077.17;128092;1101;22347;-76
2021/05/02 12:39:57;;;;;;;6.50;5.80;;;;;;;7.55;85.71;99077.88;128154;1098;24476;-75
2021/05/02 12:42:36;;;;;;;7.28;5.68;;;;;;;7.49;85.82;99094.36;128225;1101;22380;-77
2021/05/02 12:45:10;;;;;;;7.23;6.05;;;;;;;7.45;85.90;99100.16;128310;1101;22351;-77
2021/05/02 12:47:49;;;;;;;7.10;5.13;;;;;;;7.40;85.82;99102.52;127939;1104;22459;-76
2021/05/02 12:50:19;;;;;;;8.13;4.78;;;;;;;7.36;85.67;99109.91;127573;1101;22368;-75
2021/05/02 12:52:54;;;;;;;5.18;4.25;;;;;;;7.32;85.88;99108.64;127946;1101;24605;-75
2021/05/02 12:55:28;;;;;;;7.40;4.60;;;;;;;7.27;85.69;99130.20;127947;1103;22415;-77